createdAt,value
2023-01-09T00:01:55.882Z,15.40
2023-01-09T00:04:22.339Z,15.65
2023-01-09T00:06:54.113Z,15.85
2023-01-09T00:09:22.229Z,15.48
2023-01-09T00:11:49.171Z,17.25
2023-01-09T00:14:19.197Z,16.13
2023-01-09T00:16:45.759Z,15.85
2023-01-09T00:19:12.270Z,19.13
2023-01-09T00:21:38.866Z,16.70
2023-01-09T00:24:05.931Z,16.85
2023-01-09T00:26:32.511Z,20.52
2023-01-09T00:28:59.124Z,17.35
2023-01-09T00:31:25.729Z,17.88
2023-01-09T00:33:57.834Z,18.23
2023-01-09T00:36:24.614Z,19.75
2023-01-09T00:38:51.420Z,17.55
2023-01-09T00:41:22.672Z,16.45
2023-01-09T00:43:53.262Z,20.05
2023-01-09T00:46:24.720Z,22.48
2023-01-09T00:48:51.476Z,18.55
2023-01-09T00:51:19.856Z,19.75
2023-01-09T00:53:47.841Z,21.30
2023-01-09T00:56:18.248Z,19.70
2023-01-09T00:58:45.916Z,19.95
2023-01-09T01:01:12.653Z,21.35
2023-01-09T01:03:39.676Z,19.83
2023-01-09T01:06:24.674Z,21.15
2023-01-09T01:08:51.233Z,21.33
2023-01-09T01:11:17.750Z,24.55
2023-01-09T01:13:44.311Z,19.30
2023-01-09T01:16:12.859Z,24.50
2023-01-09T01:18:40.170Z,20.70
2023-01-09T01:21:11.433Z,22.75
2023-01-09T01:23:38.104Z,24.73
2023-01-09T01:26:12.987Z,22.95
2023-01-09T01:28:40.050Z,20.75
2023-01-09T01:31:07.379Z,22.42
2023-01-09T01:33:34.625Z,24.85
2023-01-09T01:36:08.742Z,22.10
2023-01-09T01:38:36.239Z,26.05
2023-01-09T01:41:03.846Z,25.67
2023-01-09T01:43:54.301Z,23.08
2023-01-09T01:46:20.973Z,22.50
2023-01-09T01:48:56.418Z,24.90
2023-01-09T01:51:25.536Z,24.38
2023-01-09T01:53:55.761Z,24.42
2023-01-09T01:56:30.317Z,26.77
2023-01-09T01:59:27.921Z,22.65
2023-01-09T02:01:58.363Z,22.50
2023-01-09T02:04:25.176Z,23.38
2023-01-09T02:07:13.547Z,25.20
2023-01-09T02:09:44.481Z,23.70
2023-01-09T02:12:20.132Z,25.15
2023-01-09T02:14:48.507Z,26.15
2023-01-09T02:17:35.880Z,26.08
2023-01-09T02:20:39.223Z,27.25
2023-01-09T02:23:24.551Z,27.58
2023-01-09T02:26:27.336Z,28.83
2023-01-09T02:29:27.813Z,29.75
2023-01-09T02:32:13.099Z,30.50
2023-01-09T02:35:10.554Z,30.83
2023-01-09T02:37:44.628Z,31.15
2023-01-09T02:40:29.608Z,30.92
2023-01-09T02:42:58.939Z,30.35
2023-01-09T02:45:25.441Z,28.60
2023-01-09T02:47:52.041Z,33.85
2023-01-09T02:50:27.663Z,32.30
2023-01-09T02:53:11.206Z,32.53
2023-01-09T02:55:52.779Z,35.90
2023-01-09T02:58:50.362Z,31.10
2023-01-09T03:01:52.155Z,32.90
2023-01-09T03:04:39.498Z,32.00
2023-01-09T03:07:25.487Z,33.83
2023-01-09T03:09:57.360Z,32.60
2023-01-09T03:12:29.590Z,34.70
2023-01-09T03:14:59.396Z,33.55
2023-01-09T03:17:37.060Z,31.45
2023-01-09T03:20:06.651Z,34.95
2023-01-09T03:22:33.194Z,34.90
2023-01-09T03:24:59.682Z,32.03
2023-01-09T03:27:26.373Z,32.42
2023-01-09T03:29:53.428Z,31.38
2023-01-09T03:32:20.060Z,32.17
2023-01-09T03:34:46.534Z,32.10
2023-01-09T03:37:13.032Z,35.47
2023-01-09T03:39:39.580Z,33.30
2023-01-09T03:42:06.049Z,35.25
2023-01-09T03:44:32.509Z,32.45
2023-01-09T03:46:59.010Z,31.42
2023-01-09T03:49:25.608Z,33.63
2023-01-09T03:51:52.064Z,34.70
2023-01-09T03:54:18.480Z,34.53
2023-01-09T03:56:44.952Z,35.00
2023-01-09T03:59:11.587Z,32.95
2023-01-09T04:01:38.215Z,32.33
2023-01-09T04:04:04.900Z,31.25
2023-01-09T04:06:31.398Z,35.40
2023-01-09T04:08:57.873Z,32.50
2023-01-09T04:11:24.321Z,38.22
2023-01-09T04:13:50.963Z,31.02
2023-01-09T04:16:17.604Z,39.58
2023-01-09T04:18:44.112Z,31.98
2023-01-09T04:21:10.693Z,33.03
2023-01-09T04:23:37.192Z,34.40
2023-01-09T04:26:03.699Z,30.42
2023-01-09T04:28:30.291Z,33.67
2023-01-09T04:30:56.790Z,33.67
2023-01-09T04:33:23.365Z,36.08
2023-01-09T04:35:49.817Z,36.95
2023-01-09T04:38:16.263Z,35.33
2023-01-09T04:40:42.704Z,32.47
2023-01-09T04:43:09.280Z,36.80
2023-01-09T04:45:35.758Z,37.60
2023-01-09T04:48:02.909Z,33.53
2023-01-09T04:50:31.287Z,35.08
2023-01-09T04:52:58.252Z,34.28
2023-01-09T04:55:24.728Z,33.72
2023-01-09T04:57:51.221Z,36.22
2023-01-09T05:00:17.836Z,30.98
2023-01-09T05:02:44.342Z,31.88
2023-01-09T05:05:11.872Z,36.03
2023-01-09T05:07:39.061Z,35.20
2023-01-09T05:10:06.762Z,33.05
2023-01-09T05:12:36.143Z,34.85
2023-01-09T05:15:07.169Z,36.85
2023-01-09T05:17:33.624Z,36.28
2023-01-09T05:20:02.819Z,36.85
2023-01-09T05:22:29.335Z,36.92
2023-01-09T05:24:56.176Z,35.08
2023-01-09T05:27:22.966Z,39.10
2023-01-09T05:29:49.501Z,32.38
2023-01-09T05:32:16.049Z,39.22
2023-01-09T05:34:42.581Z,38.13
2023-01-09T05:37:09.047Z,40.38
2023-01-09T05:39:35.584Z,38.20
2023-01-09T05:42:02.144Z,39.08
2023-01-09T05:44:28.642Z,38.97
2023-01-09T05:46:55.089Z,35.63
2023-01-09T05:49:21.631Z,36.80
2023-01-09T05:51:48.068Z,39.05
2023-01-09T05:54:14.501Z,38.13
2023-01-09T05:56:42.626Z,40.10
2023-01-09T05:59:09.133Z,39.60
2023-01-09T06:01:35.777Z,45.53
2023-01-09T06:04:02.415Z,41.88
2023-01-09T06:06:28.863Z,43.15
2023-01-09T06:08:55.394Z,41.80
2023-01-09T06:11:21.887Z,45.63
2023-01-09T06:13:48.393Z,45.63
2023-01-09T06:16:14.931Z,48.42
2023-01-09T06:18:41.492Z,47.47
2023-01-09T06:21:08.067Z,46.47
2023-01-09T06:23:34.548Z,49.00
2023-01-09T06:26:01.018Z,48.42
2023-01-09T06:28:27.482Z,45.17
2023-01-09T06:30:54.006Z,45.97
2023-01-09T06:33:20.714Z,46.50
2023-01-09T06:35:47.325Z,48.50
2023-01-09T06:38:13.830Z,53.58
2023-01-09T06:40:40.327Z,52.38
2023-01-09T06:43:06.844Z,49.53
2023-01-09T06:45:33.456Z,53.78
2023-01-09T06:47:59.952Z,59.80
2023-01-09T06:50:26.450Z,58.88
2023-01-09T06:52:52.915Z,52.70
2023-01-09T06:55:19.668Z,56.33
2023-01-09T06:57:46.138Z,50.65
2023-01-09T07:00:12.967Z,53.58
2023-01-09T07:02:39.392Z,52.85
2023-01-09T07:05:08.125Z,50.45
2023-01-09T07:07:34.974Z,52.33
2023-01-09T07:10:01.449Z,53.88
2023-01-09T07:12:28.023Z,54.30
2023-01-09T07:14:56.209Z,57.72
2023-01-09T07:17:24.092Z,56.67
2023-01-09T07:19:50.513Z,50.05
2023-01-09T07:22:23.681Z,56.58
2023-01-09T07:24:50.285Z,54.90
2023-01-09T07:27:16.788Z,54.15
2023-01-09T07:29:43.433Z,58.00
2023-01-09T07:32:10.315Z,54.60
2023-01-09T07:34:36.873Z,49.15
2023-01-09T07:37:03.528Z,60.53
2023-01-09T07:39:30.008Z,56.53
2023-01-09T07:41:56.610Z,49.75
2023-01-09T07:44:26.308Z,57.88
2023-01-09T07:46:52.801Z,55.60
2023-01-09T07:49:19.962Z,47.38
2023-01-09T07:51:48.295Z,51.63
2023-01-09T07:54:14.925Z,57.13
2023-01-09T07:56:41.580Z,50.13
2023-01-09T07:59:08.209Z,52.65
2023-01-09T08:01:34.915Z,59.30
2023-01-09T08:04:01.873Z,54.15
2023-01-09T08:06:28.420Z,49.30
2023-01-09T08:08:54.957Z,53.10
2023-01-09T08:11:21.578Z,52.25
2023-01-09T08:13:48.056Z,54.50
2023-01-09T08:16:15.078Z,53.10
2023-01-09T08:18:41.831Z,51.10
2023-01-09T08:21:08.418Z,52.00
2023-01-09T08:23:34.926Z,52.28
2023-01-09T08:26:01.535Z,52.45
2023-01-09T08:28:27.985Z,49.20
2023-01-09T08:30:56.382Z,53.70
2023-01-09T08:33:23.184Z,51.67
2023-01-09T08:35:49.844Z,51.17
2023-01-09T08:38:16.541Z,49.75
2023-01-09T08:40:43.166Z,49.75
2023-01-09T08:43:28.528Z,54.03
2023-01-09T08:46:13.771Z,49.63
2023-01-09T08:48:40.367Z,48.50
2023-01-09T08:51:06.915Z,53.33
2023-01-09T08:53:33.426Z,49.97
2023-01-09T08:56:00.125Z,49.70
2023-01-09T08:58:26.836Z,50.67
2023-01-09T09:00:56.020Z,49.83
2023-01-09T09:03:22.811Z,52.55
2023-01-09T09:05:49.387Z,54.17
2023-01-09T09:08:17.483Z,52.03
2023-01-09T09:10:44.025Z,47.05
2023-01-09T09:13:10.587Z,56.20
2023-01-09T09:15:40.173Z,47.85
2023-01-09T09:18:11.706Z,45.70
2023-01-09T09:20:39.049Z,49.95
2023-01-09T09:23:08.253Z,45.80
2023-01-09T09:25:35.502Z,58.70
2023-01-09T09:28:02.076Z,47.70
2023-01-09T09:30:28.820Z,41.38
2023-01-09T09:32:55.706Z,49.53
2023-01-09T09:35:23.059Z,43.95
2023-01-09T09:37:58.039Z,47.00
2023-01-09T09:40:40.937Z,39.75
2023-01-09T09:43:43.344Z,42.72
2023-01-09T09:46:20.431Z,40.60
2023-01-09T09:48:56.018Z,38.50
2023-01-09T09:51:40.368Z,39.58
2023-01-09T09:54:27.216Z,42.60
2023-01-09T09:56:58.020Z,39.47
2023-01-09T09:59:33.272Z,45.30
2023-01-09T10:02:10.171Z,41.65
2023-01-09T10:04:48.378Z,34.05
2023-01-09T10:07:22.556Z,36.72
2023-01-09T10:09:54.395Z,32.30
2023-01-09T10:12:29.872Z,32.65
2023-01-09T10:14:58.843Z,31.95
2023-01-09T10:17:28.243Z,29.60
2023-01-09T10:20:07.422Z,27.90
2023-01-09T10:22:53.403Z,26.30
2023-01-09T10:25:25.535Z,26.08
2023-01-09T10:28:31.643Z,23.92
2023-01-09T10:31:10.395Z,23.73
2023-01-09T10:34:04.253Z,27.58
2023-01-09T10:36:36.766Z,22.55
2023-01-09T10:39:10.520Z,29.27
2023-01-09T10:42:02.152Z,21.95
2023-01-09T10:44:37.659Z,24.73
2023-01-09T10:47:13.670Z,22.48
2023-01-09T10:49:40.664Z,28.48
2023-01-09T10:52:14.818Z,20.77
2023-01-09T10:54:49.475Z,21.70
2023-01-09T10:57:30.281Z,19.30
2023-01-09T10:59:56.992Z,20.67
2023-01-09T11:02:31.462Z,19.35
2023-01-09T11:04:58.101Z,19.48
2023-01-09T11:07:32.914Z,19.38
2023-01-09T11:10:09.663Z,14.65
2023-01-09T11:12:36.750Z,15.57
2023-01-09T11:15:21.093Z,15.80
2023-01-09T11:17:50.529Z,14.57
2023-01-09T11:20:28.428Z,17.00
2023-01-09T11:22:57.553Z,15.75
2023-01-09T11:25:26.589Z,9.45
2023-01-09T11:28:01.929Z,14.45
2023-01-09T11:30:30.411Z,11.82
2023-01-09T11:32:58.719Z,14.52
2023-01-09T11:35:33.766Z,14.68
2023-01-09T11:38:14.986Z,12.70
2023-01-09T11:40:46.500Z,13.85
2023-01-09T11:43:18.662Z,17.20
2023-01-09T11:46:01.436Z,13.77
2023-01-09T11:48:48.644Z,12.48
2023-01-09T11:51:21.768Z,16.38
2023-01-09T11:53:55.998Z,11.70
2023-01-09T11:56:22.752Z,14.73
2023-01-09T11:58:49.352Z,11.77
2023-01-09T12:01:25.165Z,10.45
2023-01-09T12:04:10.096Z,12.82
2023-01-09T12:06:39.632Z,11.35
2023-01-09T12:09:20.169Z,12.43
2023-01-09T12:12:17.612Z,9.55
2023-01-09T12:15:03.461Z,11.13
2023-01-09T12:17:42.932Z,8.52
2023-01-09T12:20:20.453Z,7.43
2023-01-09T12:23:01.927Z,11.60
2023-01-09T12:25:50.305Z,10.63
2023-01-09T12:28:35.424Z,10.55
2023-01-09T12:31:04.878Z,12.75
2023-01-09T12:33:57.960Z,11.73
2023-01-09T12:36:29.761Z,8.73
2023-01-09T12:39:22.568Z,6.50
2023-01-09T12:42:07.904Z,10.13
2023-01-09T12:44:37.033Z,11.15
2023-01-09T12:47:17.239Z,11.43
2023-01-09T12:50:09.885Z,13.48
2023-01-09T12:52:41.932Z,6.03
2023-01-09T12:55:33.252Z,6.50
2023-01-09T12:58:07.825Z,6.72
2023-01-09T13:00:39.991Z,5.20
2023-01-09T13:03:18.437Z,10.48
2023-01-09T13:05:53.634Z,10.30
2023-01-09T13:08:41.729Z,15.88
2023-01-09T13:11:20.011Z,18.17
2023-01-09T13:13:52.904Z,13.85
2023-01-09T13:16:27.021Z,13.40
2023-01-09T13:19:03.524Z,11.65
2023-01-09T13:21:30.792Z,11.63
2023-01-09T13:24:16.271Z,6.88
2023-01-09T13:26:45.536Z,6.35
2023-01-09T13:29:29.916Z,6.28
2023-01-09T13:32:08.476Z,8.25
2023-01-09T13:34:37.280Z,10.55
2023-01-09T13:37:04.644Z,6.88
2023-01-09T13:39:33.557Z,9.75
2023-01-09T13:42:21.698Z,10.32
2023-01-09T13:44:50.709Z,10.48
2023-01-09T13:47:22.033Z,5.32
2023-01-09T13:49:48.405Z,11.50
2023-01-09T13:52:38.814Z,7.32
2023-01-09T13:55:11.207Z,11.05
2023-01-09T13:57:42.297Z,6.53
2023-01-09T14:00:14.982Z,5.43
2023-01-09T14:02:42.279Z,7.68
2023-01-09T14:05:36.219Z,7.20
2023-01-09T14:08:16.127Z,8.85
2023-01-09T14:10:52.187Z,5.68
2023-01-09T14:13:23.017Z,7.00
2023-01-09T14:15:51.969Z,3.78
2023-01-09T14:18:37.089Z,10.80
2023-01-09T14:23:52.573Z,6.07
2023-01-09T14:26:46.591Z,9.77
2023-01-09T14:29:31.134Z,8.20
2023-01-09T14:32:22.391Z,6.60
2023-01-09T14:34:53.859Z,5.30
2023-01-09T14:37:20.924Z,12.48
2023-01-09T14:39:50.471Z,8.48
2023-01-09T14:42:24.137Z,9.65
2023-01-09T14:44:55.495Z,9.75
2023-01-09T14:47:30.985Z,10.95
2023-01-09T14:50:25.421Z,9.88
2023-01-09T14:52:59.423Z,5.95
2023-01-09T14:55:44.132Z,11.18
2023-01-09T14:58:31.762Z,5.40
2023-01-09T15:01:10.501Z,9.63
2023-01-09T15:03:49.416Z,6.85
2023-01-09T15:06:20.790Z,8.88
2023-01-09T15:08:57.049Z,8.57
2023-01-09T15:11:24.369Z,8.05
2023-01-09T15:13:53.330Z,11.18
2023-01-09T15:16:22.320Z,8.38
2023-01-09T15:18:52.177Z,10.32
2023-01-09T15:21:23.243Z,13.15
2023-01-09T15:23:50.069Z,14.88
2023-01-09T15:26:26.179Z,10.20
2023-01-09T15:28:54.442Z,8.00
2023-01-09T15:31:24.110Z,7.00
2023-01-09T15:33:53.828Z,9.13
2023-01-09T15:36:26.293Z,9.75
2023-01-09T15:38:54.152Z,6.32
2023-01-09T15:41:49.098Z,10.15
2023-01-09T15:44:26.330Z,10.05
2023-01-09T15:46:58.697Z,10.63
2023-01-09T15:49:25.818Z,8.80
2023-01-09T15:51:53.775Z,6.18
2023-01-09T15:54:28.719Z,5.78
2023-01-09T15:56:55.297Z,9.80
2023-01-09T15:59:24.700Z,8.40
2023-01-09T16:02:19.593Z,13.07
2023-01-09T16:04:47.629Z,6.20
2023-01-09T16:07:16.883Z,10.82
2023-01-09T16:09:48.336Z,6.25
2023-01-09T16:12:20.364Z,8.38
2023-01-09T16:14:52.522Z,10.38
2023-01-09T16:17:23.793Z,7.18
2023-01-09T16:19:58.898Z,9.25
2023-01-09T16:22:30.594Z,6.20
2023-01-09T16:25:23.093Z,10.27
2023-01-09T16:28:30.603Z,10.43
2023-01-09T16:31:01.871Z,4.88
2023-01-09T16:33:30.561Z,6.18
2023-01-09T16:36:00.639Z,10.80
2023-01-09T16:38:27.750Z,7.43
2023-01-09T16:41:26.619Z,7.30
2023-01-09T16:43:53.196Z,8.73
2023-01-09T16:46:21.299Z,8.52
2023-01-09T16:48:48.282Z,4.25
2023-01-09T16:51:17.655Z,7.90
2023-01-09T16:53:44.868Z,6.00
2023-01-09T16:56:18.586Z,8.43
2023-01-09T16:58:46.229Z,8.45
2023-01-09T17:01:15.092Z,4.28
2023-01-09T17:03:44.057Z,4.82
2023-01-09T17:06:19.999Z,4.88
2023-01-09T17:09:46.204Z,5.03
2023-01-09T17:12:20.638Z,8.35
2023-01-09T17:14:47.658Z,9.80
2023-01-09T17:17:14.942Z,10.57
2023-01-09T17:19:41.833Z,6.70
2023-01-09T17:22:08.678Z,7.68
2023-01-09T17:24:54.112Z,5.53
2023-01-09T17:27:44.881Z,7.70
2023-01-09T17:30:18.868Z,5.57
2023-01-09T17:32:45.932Z,4.57
2023-01-09T17:35:13.454Z,8.25
2023-01-09T17:37:39.945Z,5.05
2023-01-09T17:40:20.649Z,3.90
2023-01-09T17:42:47.152Z,6.68
2023-01-09T17:45:14.286Z,8.70
2023-01-09T17:47:40.952Z,12.93
2023-01-09T17:50:14.348Z,11.50
2023-01-09T17:52:41.054Z,10.45
2023-01-09T17:55:08.313Z,7.70
2023-01-09T17:57:35.114Z,11.52
2023-01-09T18:00:01.682Z,7.95
2023-01-09T18:02:28.241Z,8.55
2023-01-09T18:04:54.767Z,7.60
2023-01-09T18:07:21.286Z,10.45
2023-01-09T18:09:47.839Z,3.58
2023-01-09T18:12:14.426Z,5.82
2023-01-09T18:14:42.062Z,4.63
2023-01-09T18:17:11.849Z,8.23
2023-01-09T18:19:38.447Z,5.82
2023-01-09T18:22:04.878Z,5.57
2023-01-09T18:24:31.354Z,6.57
2023-01-09T18:26:57.834Z,4.63
2023-01-09T18:29:24.380Z,5.50
2023-01-09T18:31:51.753Z,5.28
2023-01-09T18:34:18.299Z,6.47
2023-01-09T18:36:45.056Z,3.78
2023-01-09T18:39:11.656Z,8.00
2023-01-09T18:41:38.325Z,5.97
2023-01-09T18:44:04.848Z,4.47
2023-01-09T18:46:32.292Z,4.70
2023-01-09T18:49:04.318Z,5.78
2023-01-09T18:51:32.339Z,3.00
2023-01-09T18:53:58.848Z,8.07
2023-01-09T18:56:25.566Z,4.53
2023-01-09T18:58:57.100Z,6.20
2023-01-09T19:03:50.835Z,10.07
2023-01-09T19:06:17.350Z,4.07
2023-01-09T19:08:44.089Z,5.18
2023-01-09T19:11:10.570Z,4.60
2023-01-09T19:13:37.500Z,3.40
2023-01-09T19:16:06.807Z,5.95
2023-01-09T19:18:39.499Z,5.22
2023-01-09T19:21:20.461Z,6.03
2023-01-09T19:23:47.787Z,5.43
2023-01-09T19:26:20.784Z,5.97
2023-01-09T19:28:48.087Z,11.32
2023-01-09T19:31:15.062Z,3.38
2023-01-09T19:33:41.771Z,6.90
2023-01-09T19:36:08.806Z,4.43
2023-01-09T19:38:35.553Z,3.10
2023-01-09T19:41:12.609Z,5.53
2023-01-09T19:43:40.541Z,4.35
2023-01-09T19:46:09.356Z,4.85
2023-01-09T19:48:36.324Z,4.65
2023-01-09T19:51:07.523Z,3.55
2023-01-09T19:53:35.138Z,6.10
2023-01-09T19:56:07.686Z,5.90
2023-01-09T19:58:34.166Z,6.63
2023-01-09T20:01:12.704Z,5.55
2023-01-09T20:03:47.659Z,10.95
2023-01-09T20:06:19.271Z,5.05
2023-01-09T20:11:16.274Z,4.30
2023-01-09T20:13:43.130Z,4.45
2023-01-09T20:16:15.044Z,5.82
2023-01-09T20:18:41.499Z,6.07
2023-01-09T20:21:07.995Z,5.63
2023-01-09T20:23:34.612Z,3.92
2023-01-09T20:26:01.957Z,5.28
2023-01-09T20:28:28.460Z,3.35
2023-01-09T20:30:55.176Z,4.82
2023-01-09T20:33:22.217Z,5.18
2023-01-09T20:35:49.006Z,4.13
2023-01-09T20:38:15.549Z,7.78
2023-01-09T20:40:44.949Z,4.65
2023-01-09T20:43:12.832Z,4.75
2023-01-09T20:45:40.710Z,5.65
2023-01-09T20:48:08.311Z,3.17
2023-01-09T20:50:35.043Z,5.00
2023-01-09T20:53:01.538Z,6.03
2023-01-09T20:55:28.052Z,3.90
2023-01-09T20:57:54.485Z,4.90
2023-01-09T21:00:21.648Z,6.47
2023-01-09T21:02:48.140Z,3.42
2023-01-09T21:05:14.721Z,3.22
2023-01-09T21:07:41.288Z,4.95
2023-01-09T21:10:08.343Z,4.38
2023-01-09T21:12:34.880Z,6.43
2023-01-09T21:15:04.464Z,7.75
2023-01-09T21:17:38.126Z,3.92
2023-01-09T21:20:07.356Z,4.05
2023-01-09T21:22:35.114Z,4.43
2023-01-09T21:25:02.218Z,4.15
2023-01-09T21:27:38.375Z,5.88
2023-01-09T21:30:06.316Z,2.05
2023-01-09T21:32:32.966Z,3.65
2023-01-09T21:35:04.296Z,4.68
2023-01-09T21:37:33.244Z,3.45
2023-01-09T21:40:00.532Z,3.17
2023-01-09T21:42:46.682Z,5.53
2023-01-09T21:45:35.180Z,4.72
2023-01-09T21:48:04.172Z,6.88
2023-01-09T21:50:30.637Z,2.70
2023-01-09T21:52:57.130Z,3.55
2023-01-09T21:55:23.664Z,6.25
2023-01-09T21:57:55.067Z,5.72
2023-01-09T22:00:21.965Z,6.07
2023-01-09T22:02:48.434Z,7.07
2023-01-09T22:05:14.915Z,4.22
2023-01-09T22:07:41.401Z,4.75
2023-01-09T22:10:08.899Z,4.15
2023-01-09T22:12:35.361Z,5.35
2023-01-09T22:15:02.019Z,4.88
2023-01-09T22:17:30.036Z,5.95
2023-01-09T22:19:56.585Z,2.80
2023-01-09T22:22:23.073Z,5.10
2023-01-09T22:24:50.296Z,4.22
2023-01-09T22:27:16.911Z,3.20
2023-01-09T22:29:43.371Z,4.57
2023-01-09T22:32:09.809Z,9.25
2023-01-09T22:34:36.262Z,3.28
2023-01-09T22:37:02.961Z,6.63
2023-01-09T22:39:29.650Z,4.15
2023-01-09T22:41:56.160Z,3.38
2023-01-09T22:44:22.647Z,5.78
2023-01-09T22:46:49.105Z,4.35
2023-01-09T22:49:15.563Z,9.55
2023-01-09T22:51:42.042Z,2.63
2023-01-09T22:54:08.542Z,3.88
2023-01-09T22:56:35.174Z,2.53
2023-01-09T22:59:01.704Z,3.08
2023-01-09T23:01:28.392Z,5.38
2023-01-09T23:03:54.885Z,5.82
2023-01-09T23:06:23.116Z,4.50
2023-01-09T23:08:50.953Z,6.20
2023-01-09T23:11:41.658Z,5.03
2023-01-09T23:14:08.153Z,5.45
2023-01-09T23:16:34.681Z,9.05
2023-01-09T23:19:01.301Z,3.97
2023-01-09T23:21:27.738Z,4.60
2023-01-09T23:23:54.206Z,6.18
2023-01-09T23:26:20.802Z,3.78
2023-01-09T23:28:47.253Z,5.03
2023-01-09T23:31:13.812Z,5.80
2023-01-09T23:33:40.337Z,6.43
2023-01-09T23:36:06.945Z,6.03
2023-01-09T23:38:33.501Z,6.40
2023-01-09T23:40:59.924Z,9.30
2023-01-09T23:43:26.364Z,5.03
2023-01-09T23:45:53.012Z,5.05
2023-01-09T23:48:19.909Z,4.68
2023-01-09T23:50:51.389Z,3.38
2023-01-09T23:53:19.221Z,8.15
2023-01-09T23:55:46.060Z,4.18
2023-01-09T23:58:12.562Z,3.97
